createdAt,value
2022-07-28T00:01:13.696Z,1.52
2022-07-28T00:03:40.686Z,1.30
2022-07-28T00:06:07.455Z,1.98
2022-07-28T00:08:34.236Z,1.38
2022-07-28T00:11:00.965Z,1.70
2022-07-28T00:13:27.861Z,1.40
2022-07-28T00:15:54.690Z,1.60
2022-07-28T00:18:21.536Z,1.45
2022-07-28T00:20:48.406Z,1.70
2022-07-28T00:23:15.225Z,1.80
2022-07-28T00:25:42.031Z,1.55
2022-07-28T00:28:08.868Z,1.50
2022-07-28T00:30:36.260Z,1.70
2022-07-28T00:33:03.300Z,1.48
2022-07-28T00:35:31.819Z,1.55
2022-07-28T00:38:00.068Z,1.77
2022-07-28T00:40:46.945Z,1.55
2022-07-28T00:43:15.221Z,1.50
2022-07-28T00:45:42.352Z,1.70
2022-07-28T00:48:09.405Z,1.55
2022-07-28T00:50:39.173Z,1.75
2022-07-28T00:53:06.852Z,1.85
2022-07-28T00:56:03.050Z,2.05
2022-07-28T00:58:22.776Z,2.17
2022-07-28T01:00:49.602Z,1.52
2022-07-28T01:03:16.513Z,1.95
2022-07-28T01:05:57.940Z,2.20
2022-07-28T01:08:29.929Z,2.13
2022-07-28T01:11:14.313Z,1.77
2022-07-28T01:13:56.385Z,1.90
2022-07-28T01:16:23.738Z,2.00
2022-07-28T01:19:17.752Z,1.77
2022-07-28T01:21:47.366Z,1.65
2022-07-28T01:24:27.658Z,1.83
2022-07-28T01:27:04.091Z,2.05
2022-07-28T01:29:54.033Z,2.00
2022-07-28T01:32:25.772Z,1.65
2022-07-28T01:35:11.565Z,2.35
2022-07-28T01:37:45.859Z,2.13
2022-07-28T01:40:17.549Z,1.73
2022-07-28T01:42:48.713Z,1.88
2022-07-28T01:45:16.728Z,2.00
2022-07-28T01:47:45.405Z,2.08
2022-07-28T01:50:14.740Z,2.00
2022-07-28T01:52:43.524Z,1.90
2022-07-28T01:55:12.221Z,1.95
2022-07-28T01:57:40.637Z,1.80
2022-07-28T02:00:13.513Z,2.00
2022-07-28T02:02:44.124Z,2.28
2022-07-28T02:05:15.028Z,2.08
2022-07-28T02:07:44.442Z,2.08
2022-07-28T02:10:16.886Z,2.10
2022-07-28T02:16:32.182Z,1.90
2022-07-28T02:19:00.675Z,2.10
2022-07-28T02:21:31.116Z,2.47
2022-07-28T02:23:59.781Z,2.15
2022-07-28T02:26:30.882Z,2.20
2022-07-28T02:29:01.432Z,2.28
2022-07-28T02:31:40.565Z,2.20
2022-07-28T02:34:12.846Z,1.65
2022-07-28T02:36:48.432Z,1.70
2022-07-28T02:39:22.453Z,2.20
2022-07-28T02:41:58.075Z,1.70
2022-07-28T02:44:30.628Z,2.00
2022-07-28T02:46:59.450Z,2.05
2022-07-28T02:49:32.522Z,2.00
2022-07-28T02:52:01.828Z,1.42
2022-07-28T02:54:30.762Z,2.20
2022-07-28T02:57:00.009Z,1.98
2022-07-28T02:59:28.550Z,2.10
2022-07-28T03:01:56.461Z,1.95
2022-07-28T03:04:43.749Z,1.80
2022-07-28T03:07:11.243Z,1.77
2022-07-28T03:09:43.738Z,2.05
2022-07-28T03:12:11.360Z,2.22
2022-07-28T03:14:38.362Z,2.25
2022-07-28T03:17:06.133Z,2.00
2022-07-28T03:19:33.586Z,2.00
2022-07-28T03:22:00.610Z,2.00
2022-07-28T03:24:30.801Z,2.22
2022-07-28T03:27:10.023Z,2.00
2022-07-28T03:29:38.841Z,2.30
2022-07-28T03:32:06.377Z,1.90
2022-07-28T03:34:33.425Z,2.40
2022-07-28T03:37:16.478Z,2.28
2022-07-28T03:39:51.527Z,2.13
2022-07-28T03:42:19.618Z,2.88
2022-07-28T03:44:47.995Z,2.03
2022-07-28T03:47:15.415Z,1.90
2022-07-28T03:49:45.901Z,1.90
2022-07-28T03:52:12.710Z,1.77
2022-07-28T03:54:39.491Z,2.17
2022-07-28T03:57:06.434Z,2.22
2022-07-28T03:59:33.191Z,2.53
2022-07-28T04:02:00.067Z,1.90
2022-07-28T04:04:27.045Z,2.08
2022-07-28T04:06:53.922Z,2.25
2022-07-28T04:09:20.772Z,2.38
2022-07-28T04:11:47.649Z,2.08
2022-07-28T04:14:16.822Z,2.13
2022-07-28T04:16:44.421Z,1.80
2022-07-28T04:19:11.744Z,2.22
2022-07-28T04:21:38.595Z,2.60
2022-07-28T04:24:05.852Z,1.70
2022-07-28T04:26:32.692Z,1.70
2022-07-28T04:28:59.450Z,2.08
2022-07-28T04:31:30.503Z,1.67
2022-07-28T04:33:57.454Z,1.83
2022-07-28T04:36:24.237Z,2.00
2022-07-28T04:38:51.055Z,2.00
2022-07-28T04:41:17.856Z,2.35
2022-07-28T04:43:45.411Z,1.80
2022-07-28T04:46:15.142Z,2.03
2022-07-28T04:48:42.468Z,1.80
2022-07-28T04:51:09.977Z,2.30
2022-07-28T04:53:36.773Z,3.30
2022-07-28T04:56:03.719Z,2.05
2022-07-28T04:58:31.120Z,1.60
2022-07-28T05:00:58.039Z,1.95
2022-07-28T05:03:24.862Z,1.55
2022-07-28T05:05:54.272Z,2.10
2022-07-28T05:08:22.220Z,1.58
2022-07-28T05:10:52.673Z,1.92
2022-07-28T05:13:19.397Z,1.80
2022-07-28T05:15:46.213Z,1.77
2022-07-28T05:18:12.955Z,1.83
2022-07-28T05:20:39.700Z,1.60
2022-07-28T05:23:06.445Z,1.67
2022-07-28T05:25:33.310Z,2.10
2022-07-28T05:28:00.053Z,2.00
2022-07-28T05:30:26.920Z,1.80
2022-07-28T05:32:54.050Z,1.73
2022-07-28T05:35:23.292Z,1.70
2022-07-28T05:37:50.063Z,1.75
2022-07-28T05:40:18.362Z,1.88
2022-07-28T05:42:47.758Z,1.60
2022-07-28T05:45:16.866Z,1.65
2022-07-28T05:47:52.403Z,2.15
2022-07-28T05:50:21.325Z,2.08
2022-07-28T05:52:49.038Z,1.50
2022-07-28T05:55:16.607Z,1.90
2022-07-28T05:57:43.554Z,1.85
2022-07-28T06:00:16.202Z,1.65
2022-07-28T06:02:45.742Z,1.83
2022-07-28T06:05:13.478Z,1.75
2022-07-28T06:07:43.340Z,1.75
2022-07-28T06:10:13.596Z,1.90
2022-07-28T06:12:41.930Z,1.63
2022-07-28T06:15:14.676Z,1.60
2022-07-28T06:17:41.917Z,1.33
2022-07-28T06:20:09.825Z,1.63
2022-07-28T06:22:48.708Z,3.58
2022-07-28T06:25:18.341Z,1.65
2022-07-28T06:27:46.086Z,1.52
2022-07-28T06:30:13.770Z,1.40
2022-07-28T06:32:40.672Z,1.52
2022-07-28T06:35:08.396Z,1.48
2022-07-28T06:37:35.393Z,1.45
2022-07-28T06:40:03.241Z,1.67
2022-07-28T06:42:29.988Z,2.00
2022-07-28T06:44:59.477Z,1.58
2022-07-28T06:47:27.142Z,1.60
2022-07-28T06:49:53.946Z,1.38
2022-07-28T06:52:21.991Z,1.90
2022-07-28T06:54:52.971Z,1.65
2022-07-28T06:57:28.074Z,1.92
2022-07-28T07:00:03.288Z,1.30
2022-07-28T07:02:30.108Z,1.65
2022-07-28T07:04:56.834Z,1.55
2022-07-28T07:07:23.742Z,1.45
2022-07-28T07:09:51.458Z,1.50
2022-07-28T07:12:18.189Z,1.55
2022-07-28T07:14:44.934Z,1.83
2022-07-28T07:17:11.719Z,1.50
2022-07-28T07:19:38.922Z,1.48
2022-07-28T07:22:05.655Z,1.30
2022-07-28T07:24:32.917Z,1.25
2022-07-28T07:27:00.020Z,1.35
2022-07-28T07:29:30.615Z,1.55
2022-07-28T07:31:58.643Z,1.35
2022-07-28T07:34:25.556Z,1.30
2022-07-28T07:36:52.384Z,1.55
2022-07-28T07:39:19.169Z,1.60
2022-07-28T07:41:45.935Z,1.70
2022-07-28T07:44:12.891Z,1.55
2022-07-28T07:46:40.022Z,1.48
2022-07-28T07:49:06.887Z,1.60
2022-07-28T07:51:34.561Z,1.58
2022-07-28T07:54:01.299Z,1.75
2022-07-28T07:56:28.050Z,1.20
2022-07-28T07:58:57.067Z,1.55
2022-07-28T08:01:24.216Z,1.30
2022-07-28T08:03:51.454Z,1.42
2022-07-28T08:06:26.578Z,1.10
2022-07-28T08:08:55.094Z,1.30
2022-07-28T08:11:22.013Z,1.42
2022-07-28T08:13:49.549Z,1.20
2022-07-28T08:16:16.551Z,1.35
2022-07-28T08:18:44.797Z,1.33
2022-07-28T08:21:13.008Z,1.13
2022-07-28T08:23:39.840Z,1.40
2022-07-28T08:26:06.805Z,1.20
2022-07-28T08:28:33.565Z,1.38
2022-07-28T08:31:00.435Z,1.40
2022-07-28T08:33:27.262Z,1.40
2022-07-28T08:35:54.005Z,1.48
2022-07-28T08:38:20.798Z,1.85
2022-07-28T08:40:49.887Z,1.50
2022-07-28T08:43:29.094Z,2.00
2022-07-28T08:45:58.753Z,1.52
2022-07-28T08:48:30.231Z,1.48
2022-07-28T08:51:03.885Z,1.40
2022-07-28T08:53:31.700Z,1.25
2022-07-28T08:56:04.922Z,1.20
2022-07-28T09:01:00.251Z,1.77
2022-07-28T09:03:28.536Z,1.30
2022-07-28T09:05:58.396Z,1.05
2022-07-28T09:08:25.436Z,1.33
2022-07-28T09:10:53.292Z,1.30
2022-07-28T09:13:20.518Z,1.13
2022-07-28T09:15:47.629Z,1.40
2022-07-28T09:18:18.437Z,1.73
2022-07-28T09:20:45.650Z,1.42
2022-07-28T09:23:42.158Z,1.33
2022-07-28T09:26:12.045Z,1.40
2022-07-28T09:28:51.088Z,1.35
2022-07-28T09:31:19.532Z,1.08
2022-07-28T09:34:01.022Z,1.30
2022-07-28T09:36:39.126Z,1.30
2022-07-28T09:39:06.468Z,1.40
2022-07-28T09:41:48.343Z,1.48
2022-07-28T09:44:19.885Z,1.30
2022-07-28T09:46:46.937Z,1.35
2022-07-28T09:49:15.054Z,1.52
2022-07-28T09:51:42.346Z,1.30
2022-07-28T09:54:14.603Z,1.30
2022-07-28T09:56:44.188Z,1.25
2022-07-28T09:59:14.655Z,1.55
2022-07-28T10:01:55.691Z,1.20
2022-07-28T10:04:38.368Z,1.52
2022-07-28T10:07:07.729Z,1.35
2022-07-28T10:09:34.732Z,1.08
2022-07-28T10:12:22.275Z,1.30
2022-07-28T10:14:54.816Z,1.23
2022-07-28T10:17:30.647Z,1.20
2022-07-28T10:20:04.047Z,1.27
2022-07-28T10:22:33.790Z,1.40
2022-07-28T10:25:09.648Z,1.23
2022-07-28T10:27:40.356Z,0.95
2022-07-28T10:30:07.834Z,1.50
2022-07-28T10:32:42.583Z,1.50
2022-07-28T10:35:14.516Z,1.65
2022-07-28T10:37:54.438Z,1.38
2022-07-28T10:40:27.141Z,1.27
2022-07-28T10:42:55.021Z,1.65
2022-07-28T10:45:22.325Z,1.60
2022-07-28T10:47:50.124Z,1.10
2022-07-28T10:50:18.174Z,1.40
2022-07-28T10:52:49.842Z,1.17
2022-07-28T10:55:38.520Z,1.20
2022-07-28T10:58:24.972Z,1.15
2022-07-28T11:00:57.288Z,1.30
2022-07-28T11:03:44.478Z,1.67
2022-07-28T11:06:28.189Z,1.00
2022-07-28T11:08:57.368Z,1.17
2022-07-28T11:11:46.784Z,1.20
2022-07-28T11:14:25.948Z,1.65
2022-07-28T11:17:10.686Z,1.25
2022-07-28T11:19:55.839Z,1.25
2022-07-28T11:22:33.438Z,1.05
2022-07-28T11:25:20.364Z,1.20
2022-07-28T11:27:51.690Z,1.00
2022-07-28T11:30:18.852Z,1.25
2022-07-28T11:32:53.726Z,1.17
2022-07-28T11:35:25.149Z,1.30
2022-07-28T11:38:01.617Z,1.42
2022-07-28T11:40:45.685Z,1.25
2022-07-28T11:43:36.302Z,1.10
2022-07-28T11:46:07.784Z,0.80
2022-07-28T11:48:39.347Z,1.00
2022-07-28T11:51:06.330Z,0.90
2022-07-28T11:53:50.130Z,1.40
2022-07-28T11:56:22.585Z,1.05
2022-07-28T11:58:57.400Z,1.20
2022-07-28T12:01:24.159Z,1.65
2022-07-28T12:03:55.343Z,1.10
2022-07-28T12:06:28.907Z,1.20
2022-07-28T12:09:06.147Z,1.45
2022-07-28T12:11:35.107Z,1.20
2022-07-28T12:14:09.409Z,1.08
2022-07-28T12:16:38.515Z,1.33
2022-07-28T12:19:08.296Z,1.30
2022-07-28T12:21:46.517Z,1.30
2022-07-28T12:24:20.559Z,0.93
2022-07-28T12:26:49.949Z,1.20
2022-07-28T12:29:17.638Z,1.13
2022-07-28T12:31:55.746Z,1.10
2022-07-28T12:34:26.755Z,0.82
2022-07-28T12:36:58.701Z,1.35
2022-07-28T12:39:26.302Z,0.90
2022-07-28T12:42:07.375Z,1.00
2022-07-28T12:44:42.298Z,1.40
2022-07-28T12:47:12.162Z,1.20
2022-07-28T12:49:42.555Z,1.35
2022-07-28T12:52:21.509Z,1.30
2022-07-28T12:54:55.471Z,1.10
2022-07-28T12:57:48.855Z,1.02
2022-07-28T13:00:19.641Z,1.30
2022-07-28T13:02:47.671Z,0.95
2022-07-28T13:05:31.816Z,1.20
2022-07-28T13:08:03.811Z,1.35
2022-07-28T13:10:32.218Z,1.33
2022-07-28T13:13:17.618Z,1.00
2022-07-28T13:15:44.760Z,1.13
2022-07-28T13:18:12.483Z,0.80
2022-07-28T13:20:54.921Z,1.00
2022-07-28T13:23:22.050Z,1.00
2022-07-28T13:25:48.767Z,1.00
2022-07-28T13:28:24.086Z,0.88
2022-07-28T13:30:50.882Z,1.00
2022-07-28T13:33:18.191Z,1.20
2022-07-28T13:35:45.341Z,0.90
2022-07-28T13:38:12.133Z,1.20
2022-07-28T13:40:38.952Z,1.20
2022-07-28T13:43:11.353Z,1.30
2022-07-28T13:45:38.759Z,0.98
2022-07-28T13:48:07.802Z,1.10
2022-07-28T13:50:34.645Z,1.13
2022-07-28T13:53:01.482Z,1.13
2022-07-28T13:55:28.428Z,1.80
2022-07-28T13:57:55.228Z,1.25
2022-07-28T14:00:23.929Z,1.30
2022-07-28T14:02:51.504Z,1.30
2022-07-28T14:05:18.718Z,1.23
2022-07-28T14:07:48.794Z,1.27
2022-07-28T14:10:17.744Z,1.30
2022-07-28T14:12:45.085Z,1.27
2022-07-28T14:15:13.795Z,1.42
2022-07-28T14:17:43.867Z,1.27
2022-07-28T14:20:14.196Z,1.15
2022-07-28T14:22:41.742Z,2.03
2022-07-28T14:25:09.657Z,1.20
2022-07-28T14:27:36.459Z,1.20
2022-07-28T14:30:04.552Z,1.30
2022-07-28T14:32:32.746Z,1.20
2022-07-28T14:34:59.818Z,1.20
2022-07-28T14:37:31.437Z,1.33
2022-07-28T14:40:08.572Z,1.20
2022-07-28T14:42:35.409Z,1.30
2022-07-28T14:45:05.744Z,1.23
2022-07-28T14:47:44.938Z,1.33
2022-07-28T14:50:12.783Z,1.10
2022-07-28T14:52:39.742Z,1.02
2022-07-28T14:55:06.900Z,1.02
2022-07-28T14:57:51.866Z,1.13
2022-07-28T15:00:22.301Z,1.17
2022-07-28T15:02:51.459Z,1.00
2022-07-28T15:05:19.158Z,1.20
2022-07-28T15:07:49.031Z,1.20
2022-07-28T15:10:16.134Z,1.60
2022-07-28T15:12:43.024Z,1.02
2022-07-28T15:15:10.523Z,1.30
2022-07-28T15:17:37.655Z,0.98
2022-07-28T15:20:06.662Z,1.50
2022-07-28T15:22:34.119Z,1.50
2022-07-28T15:25:00.963Z,1.38
2022-07-28T15:27:33.021Z,1.30
2022-07-28T15:30:02.950Z,1.50
2022-07-28T15:32:31.315Z,1.40
2022-07-28T15:34:59.164Z,1.42
2022-07-28T15:37:27.531Z,1.60
2022-07-28T15:39:54.481Z,1.27
2022-07-28T15:42:21.324Z,1.40
2022-07-28T15:44:49.296Z,0.95
2022-07-28T15:47:16.619Z,1.77
2022-07-28T15:49:43.531Z,1.30
2022-07-28T15:52:10.556Z,1.30
2022-07-28T15:54:37.356Z,2.08
2022-07-28T15:57:04.258Z,2.13
2022-07-28T15:59:50.136Z,1.42
2022-07-28T16:02:18.478Z,2.05
2022-07-28T16:04:53.697Z,1.63
2022-07-28T16:07:24.433Z,1.55
2022-07-28T16:09:53.901Z,1.67
2022-07-28T16:12:22.771Z,1.77
2022-07-28T16:14:49.849Z,1.60
2022-07-28T16:17:18.287Z,1.50
2022-07-28T16:19:49.630Z,2.15
2022-07-28T16:22:19.050Z,1.77
2022-07-28T16:24:46.543Z,1.50
2022-07-28T16:27:13.886Z,1.95
2022-07-28T16:29:40.790Z,1.95
2022-07-28T16:32:07.633Z,1.80
2022-07-28T16:34:34.475Z,1.65
2022-07-28T16:37:01.656Z,2.00
2022-07-28T16:39:34.374Z,1.73
2022-07-28T16:42:01.806Z,2.13
2022-07-28T16:44:29.270Z,1.70
2022-07-28T16:46:56.361Z,1.27
2022-07-28T16:49:24.473Z,1.55
2022-07-28T16:51:51.449Z,1.60
2022-07-28T16:54:18.777Z,1.70
2022-07-28T16:56:45.928Z,1.60
2022-07-28T16:59:13.099Z,1.70
2022-07-28T17:01:45.625Z,1.40
2022-07-28T17:04:14.864Z,1.85
2022-07-28T17:06:42.119Z,1.63
2022-07-28T17:09:09.370Z,1.45
2022-07-28T17:11:36.190Z,1.42
2022-07-28T17:14:04.421Z,1.58
2022-07-28T17:16:31.424Z,1.30
2022-07-28T17:18:58.278Z,1.80
2022-07-28T17:21:25.725Z,1.63
2022-07-28T17:23:53.111Z,1.52
2022-07-28T17:29:06.972Z,2.17
2022-07-28T17:31:34.004Z,1.45
2022-07-28T17:34:01.149Z,1.65
2022-07-28T17:36:27.921Z,1.73
2022-07-28T17:38:54.641Z,1.70
2022-07-28T17:41:21.822Z,1.60
2022-07-28T17:43:48.596Z,1.67
2022-07-28T17:46:15.474Z,1.60
2022-07-28T17:48:42.335Z,1.55
2022-07-28T17:51:09.206Z,1.70
2022-07-28T17:53:39.267Z,1.80
2022-07-28T17:56:06.952Z,1.98
2022-07-28T17:58:36.059Z,2.03
2022-07-28T18:01:12.102Z,1.70
2022-07-28T18:03:59.468Z,1.77
2022-07-28T18:06:29.669Z,2.13
2022-07-28T18:08:56.678Z,1.85
2022-07-28T18:11:23.476Z,2.05
2022-07-28T18:14:03.634Z,2.22
2022-07-28T18:16:34.251Z,1.90
2022-07-28T18:19:02.313Z,1.90
2022-07-28T18:21:29.305Z,1.90
2022-07-28T18:23:56.106Z,1.83
2022-07-28T18:26:23.057Z,1.40
2022-07-28T18:28:49.961Z,1.50
2022-07-28T18:31:17.073Z,2.05
2022-07-28T18:33:44.080Z,2.03
2022-07-28T18:36:10.825Z,2.22
2022-07-28T18:38:37.545Z,1.75
2022-07-28T18:41:04.328Z,1.80
2022-07-28T18:43:31.165Z,1.50
2022-07-28T18:45:57.973Z,1.90
2022-07-28T18:48:25.655Z,1.80
2022-07-28T18:50:52.741Z,1.75
2022-07-28T18:53:19.480Z,1.42
2022-07-28T18:55:46.629Z,1.60
2022-07-28T18:58:13.384Z,1.90
2022-07-28T19:00:40.156Z,1.30
2022-07-28T19:03:07.082Z,1.80
2022-07-28T19:05:37.127Z,1.40
2022-07-28T19:08:05.350Z,1.70
2022-07-28T19:10:32.478Z,1.55
2022-07-28T19:12:59.634Z,1.60
2022-07-28T19:15:26.563Z,1.50
2022-07-28T19:18:09.989Z,1.70
2022-07-28T19:20:43.871Z,1.60
2022-07-28T19:23:10.781Z,2.00
2022-07-28T19:25:39.536Z,1.48
2022-07-28T19:28:06.611Z,2.40
2022-07-28T19:30:34.154Z,1.75
2022-07-28T19:33:01.004Z,1.90
2022-07-28T19:35:27.827Z,2.42
2022-07-28T19:37:56.685Z,1.80
2022-07-28T19:40:25.543Z,1.70
2022-07-28T19:42:53.423Z,1.92
2022-07-28T19:45:20.278Z,1.80
2022-07-28T19:47:47.097Z,2.00
2022-07-28T19:50:17.051Z,2.10
2022-07-28T19:52:43.846Z,2.00
2022-07-28T19:55:10.603Z,2.03
2022-07-28T19:57:42.139Z,2.10
2022-07-28T20:00:10.270Z,2.75
2022-07-28T20:02:39.722Z,1.85
2022-07-28T20:05:07.372Z,2.13
2022-07-28T20:07:34.234Z,2.20
2022-07-28T20:10:01.245Z,2.30
2022-07-28T20:12:32.763Z,2.30
2022-07-28T20:15:03.451Z,1.98
2022-07-28T20:17:38.512Z,2.30
2022-07-28T20:20:13.470Z,2.83
2022-07-28T20:22:41.657Z,2.20
2022-07-28T20:25:10.167Z,2.20
2022-07-28T20:27:41.583Z,2.00
2022-07-28T20:30:10.287Z,2.70
2022-07-28T20:32:37.729Z,1.88
2022-07-28T20:35:06.424Z,2.15
2022-07-28T20:37:36.735Z,2.00
2022-07-28T20:40:06.563Z,2.20
2022-07-28T20:42:33.541Z,2.17
2022-07-28T20:45:00.520Z,2.58
2022-07-28T20:47:28.149Z,2.08
2022-07-28T20:49:55.362Z,2.47
2022-07-28T20:52:24.718Z,2.20
2022-07-28T20:54:54.577Z,2.40
2022-07-28T20:57:22.582Z,2.13
2022-07-28T20:59:51.316Z,2.05
2022-07-28T21:02:22.858Z,1.98
2022-07-28T21:04:50.687Z,2.22
2022-07-28T21:08:00.048Z,2.40
2022-07-28T21:10:08.624Z,2.17
2022-07-28T21:12:37.137Z,2.40
2022-07-28T21:15:05.129Z,1.73
2022-07-28T21:17:32.070Z,2.15
2022-07-28T21:19:59.061Z,1.52
2022-07-28T21:22:25.848Z,1.80
2022-07-28T21:24:55.404Z,1.50
2022-07-28T21:27:23.993Z,1.80
2022-07-28T21:32:18.441Z,1.55
2022-07-28T21:34:45.256Z,1.65
2022-07-28T21:37:13.058Z,1.88
2022-07-28T21:39:40.262Z,1.55
2022-07-28T21:42:08.884Z,1.25
2022-07-28T21:44:36.986Z,1.90
2022-07-28T21:47:04.296Z,1.90
2022-07-28T21:49:32.719Z,1.70
2022-07-28T21:51:59.808Z,1.60
2022-07-28T21:54:27.034Z,2.10
2022-07-28T21:56:53.809Z,2.03
2022-07-28T21:59:20.572Z,1.60
2022-07-28T22:01:47.656Z,2.10
2022-07-28T22:04:14.825Z,1.60
2022-07-28T22:06:46.633Z,1.90
2022-07-28T22:09:14.695Z,1.52
2022-07-28T22:11:41.771Z,1.92
2022-07-28T22:14:08.679Z,1.60
2022-07-28T22:16:35.499Z,1.60
2022-07-28T22:19:02.388Z,1.65
2022-07-28T22:21:29.148Z,1.67
2022-07-28T22:23:56.054Z,2.00
2022-07-28T22:26:22.960Z,2.25
2022-07-28T22:28:49.860Z,2.30
2022-07-28T22:31:17.062Z,1.77
2022-07-28T22:33:44.033Z,1.95
2022-07-28T22:36:10.797Z,1.83
2022-07-28T22:38:37.581Z,1.75
2022-07-28T22:41:04.394Z,2.05
2022-07-28T22:43:33.399Z,2.22
2022-07-28T22:46:00.340Z,1.80
2022-07-28T22:48:27.255Z,2.28
2022-07-28T22:50:53.972Z,1.75
2022-07-28T22:53:20.759Z,1.80
2022-07-28T22:55:47.577Z,1.90
2022-07-28T22:58:14.541Z,1.65
2022-07-28T23:00:41.343Z,1.92
2022-07-28T23:03:08.603Z,2.08
2022-07-28T23:05:40.366Z,2.70
2022-07-28T23:08:07.261Z,1.65
2022-07-28T23:10:34.658Z,1.77
2022-07-28T23:13:01.885Z,1.95
2022-07-28T23:15:39.352Z,2.55
2022-07-28T23:18:10.245Z,1.70
2022-07-28T23:20:38.380Z,1.83
2022-07-28T23:23:05.137Z,1.88
2022-07-28T23:25:32.006Z,1.50
2022-07-28T23:27:58.898Z,1.35
2022-07-28T23:30:25.622Z,1.60
2022-07-28T23:32:53.058Z,1.90
2022-07-28T23:35:19.916Z,1.48
2022-07-28T23:37:46.779Z,1.42
2022-07-28T23:40:14.180Z,1.55
2022-07-28T23:42:41.604Z,1.42
2022-07-28T23:45:09.115Z,1.73
2022-07-28T23:47:35.979Z,1.50
2022-07-28T23:50:04.635Z,1.50
2022-07-28T23:52:31.468Z,1.50
2022-07-28T23:54:58.432Z,1.58
2022-07-28T23:57:25.182Z,1.83
2022-07-28T23:59:58.757Z,1.80
